Time,TemperatureF,DewpointF,PressureIn,WindDirection,WindDirectionDegrees,WindSpeedMPH,WindSpeedGustMPH,Humidity,HourlyPrecipIn,Conditions,Clouds,dailyrainin,SoftwareType,DateUTC
2013-08-17 00:01:00,55.1,53.1,30.17,NE,49,0.0,0.0,93,0.00,,,0.00,Wunderground v.1.15,2013-08-17 04:01:00,
2013-08-17 00:02:00,55.1,53.1,30.17,NE,49,0.0,0.0,93,0.00,,,0.00,Wunderground v.1.15,2013-08-17 04:02:00,
2013-08-17 00:05:00,55.0,53.0,30.17,NE,49,0.0,0.0,93,0.00,,,0.00,Wunderground v.1.15,2013-08-17 04:05:00,
2013-08-17 00:07:00,54.9,52.9,30.17,NE,49,0.0,0.0,93,0.00,,,0.00,Wunderground v.1.15,2013-08-17 04:07:00,
2013-08-17 00:13:00,54.7,53.0,30.17,NE,49,0.0,1.0,94,0.00,,,0.00,Wunderground v.1.15,2013-08-17 04:13:00,
2013-08-17 00:19:00,54.6,52.9,30.17,NE,49,0.0,1.0,94,0.00,,,0.00,Wunderground v.1.15,2013-08-17 04:19:00,
2013-08-17 00:24:00,54.4,52.7,30.17,NE,48,0.0,1.0,94,0.00,,,0.00,Wunderground v.1.15,2013-08-17 04:24:00,
2013-08-17 00:29:00,54.3,52.6,30.17,NE,49,0.0,1.0,94,0.00,,,0.00,Wunderground v.1.15,2013-08-17 04:29:00,
2013-08-17 00:36:00,54.3,52.6,30.17,NE,48,0.0,1.0,94,0.00,,,0.00,Wunderground v.1.15,2013-08-17 04:36:00,
2013-08-17 00:42:00,54.1,52.4,30.17,NE,48,0.0,0.0,94,0.00,,,0.00,Wunderground v.1.15,2013-08-17 04:42:00,
2013-08-17 00:47:00,53.9,52.2,30.18,NE,48,0.0,0.0,94,0.00,,,0.00,Wunderground v.1.15,2013-08-17 04:47:00,
2013-08-17 00:52:00,53.9,52.2,30.18,NE,49,0.0,0.0,94,0.00,,,0.00,Wunderground v.1.15,2013-08-17 04:52:00,
2013-08-17 00:59:00,53.8,52.1,30.17,NE,48,0.0,0.0,94,0.00,,,0.00,Wunderground v.1.15,2013-08-17 04:59:00,
2013-08-17 01:05:00,53.5,51.8,30.17,NE,49,0.0,0.0,94,0.00,,,0.00,Wunderground v.1.15,2013-08-17 05:05:00,
2013-08-17 01:12:00,53.1,51.4,30.17,NE,48,0.0,0.0,94,0.00,,,0.00,Wunderground v.1.15,2013-08-17 05:12:00,
2013-08-17 01:19:00,52.9,51.2,30.18,NE,49,0.0,0.0,94,0.00,,,0.00,Wunderground v.1.15,2013-08-17 05:19:00,
2013-08-17 01:24:00,52.9,51.2,30.17,NE,49,0.0,0.0,94,0.00,,,0.00,Wunderground v.1.15,2013-08-17 05:24:00,
2013-08-17 01:31:00,53.0,51.3,30.18,NE,48,0.0,0.0,94,0.00,,,0.00,Wunderground v.1.15,2013-08-17 05:31:00,
2013-08-17 01:36:00,52.9,51.2,30.17,NE,48,0.0,0.0,94,0.00,,,0.00,Wunderground v.1.15,2013-08-17 05:36:00,
2013-08-17 01:43:00,52.7,51.0,30.18,NE,48,0.0,0.0,94,0.00,,,0.00,Wunderground v.1.15,2013-08-17 05:43:00,
2013-08-17 01:52:00,52.8,51.1,30.18,NE,49,0.0,0.0,94,0.00,,,0.00,Wunderground v.1.15,2013-08-17 05:52:00,
2013-08-17 01:59:00,52.9,51.2,30.18,NE,48,0.0,0.0,94,0.00,,,0.00,Wunderground v.1.15,2013-08-17 05:59:00,
2013-08-17 02:05:00,52.8,51.1,30.18,NE,49,0.0,0.0,94,0.00,,,0.00,Wunderground v.1.15,2013-08-17 06:05:00,
2013-08-17 02:10:00,52.7,51.0,30.18,NE,48,0.0,0.0,94,0.00,,,0.00,Wunderground v.1.15,2013-08-17 06:10:00,
2013-08-17 02:16:00,52.5,50.8,30.18,NE,49,0.0,0.0,94,0.00,,,0.00,Wunderground v.1.15,2013-08-17 06:16:00,
2013-08-17 02:21:00,52.4,50.7,30.18,NE,48,0.0,0.0,94,0.00,,,0.00,Wunderground v.1.15,2013-08-17 06:21:00,
2013-08-17 02:27:00,52.2,50.5,30.18,NE,48,0.0,0.0,94,0.00,,,0.00,Wunderground v.1.15,2013-08-17 06:27:00,
2013-08-17 02:32:00,52.1,50.4,30.18,NE,49,0.0,0.0,94,0.00,,,0.00,Wunderground v.1.15,2013-08-17 06:32:00,
2013-08-17 02:39:00,51.8,50.1,30.18,NE,48,0.0,0.0,94,0.00,,,0.00,Wunderground v.1.15,2013-08-17 06:39:00,
2013-08-17 02:44:00,51.4,49.7,30.18,NE,48,0.0,0.0,94,0.00,,,0.00,Wunderground v.1.15,2013-08-17 06:44:00,
2013-08-17 02:49:00,51.3,49.6,30.18,NE,48,0.0,0.0,94,0.00,,,0.00,Wunderground v.1.15,2013-08-17 06:49:00,
2013-08-17 02:55:00,51.5,49.8,30.18,NE,48,0.0,0.0,94,0.00,,,0.00,Wunderground v.1.15,2013-08-17 06:55:00,
2013-08-17 03:00:00,51.6,49.9,30.18,NE,49,0.0,0.0,94,0.00,,,0.00,Wunderground v.1.15,2013-08-17 07:00:00,
2013-08-17 03:06:00,51.5,49.8,30.18,NE,48,0.0,0.0,94,0.00,,,0.00,Wunderground v.1.15,2013-08-17 07:06:00,
2013-08-17 03:12:00,51.3,49.6,30.18,NE,49,0.0,0.0,94,0.00,,,0.00,Wunderground v.1.15,2013-08-17 07:12:00,
2013-08-17 03:19:00,51.2,49.5,30.18,NE,48,0.0,0.0,94,0.00,,,0.00,Wunderground v.1.15,2013-08-17 07:19:00,
2013-08-17 03:24:00,51.1,49.4,30.18,NE,49,0.0,0.0,94,0.00,,,0.00,Wunderground v.1.15,2013-08-17 07:24:00,
2013-08-17 03:30:00,51.2,49.5,30.18,NE,48,0.0,0.0,94,0.00,,,0.00,Wunderground v.1.15,2013-08-17 07:30:00,
2013-08-17 03:35:00,50.9,49.2,30.18,NE,48,0.0,0.0,94,0.00,,,0.00,Wunderground v.1.15,2013-08-17 07:35:00,
2013-08-17 03:40:00,50.8,49.1,30.18,NE,48,0.0,0.0,94,0.00,,,0.00,Wunderground v.1.15,2013-08-17 07:40:00,
2013-08-17 03:45:00,50.9,49.2,30.18,NE,49,0.0,0.0,94,0.00,,,0.00,Wunderground v.1.15,2013-08-17 07:45:00,
2013-08-17 03:50:00,50.9,49.2,30.18,NE,49,0.0,0.0,94,0.00,,,0.00,Wunderground v.1.15,2013-08-17 07:50:00,
2013-08-17 03:56:00,50.8,49.1,30.19,NE,49,0.0,0.0,94,0.00,,,0.00,Wunderground v.1.15,2013-08-17 07:56:00,
2013-08-17 04:01:00,50.6,48.9,30.19,NE,48,0.0,0.0,94,0.00,,,0.00,Wunderground v.1.15,2013-08-17 08:01:00,
2013-08-17 04:07:00,50.9,49.5,30.19,NE,48,0.0,0.0,95,0.00,,,0.00,Wunderground v.1.15,2013-08-17 08:07:00,
2013-08-17 04:14:00,51.0,49.6,30.19,NE,48,0.0,0.0,95,0.00,,,0.00,Wunderground v.1.15,2013-08-17 08:14:00,
2013-08-17 04:19:00,50.8,49.4,30.19,NE,48,0.0,0.0,95,0.00,,,0.00,Wunderground v.1.15,2013-08-17 08:19:00,
2013-08-17 04:26:00,50.7,49.3,30.19,NE,49,0.0,0.0,95,0.00,,,0.00,Wunderground v.1.15,2013-08-17 08:26:00,
2013-08-17 04:31:00,50.4,48.7,30.19,NE,48,0.0,0.0,94,0.00,,,0.00,Wunderground v.1.15,2013-08-17 08:31:00,
2013-08-17 04:38:00,50.3,48.9,30.19,NE,48,0.0,0.0,95,0.00,,,0.00,Wunderground v.1.15,2013-08-17 08:38:00,
2013-08-17 04:44:00,50.0,48.3,30.19,NE,49,0.0,0.0,94,0.00,,,0.00,Wunderground v.1.15,2013-08-17 08:44:00,
2013-08-17 04:49:00,49.7,48.0,30.19,NE,48,0.0,0.0,94,0.00,,,0.00,Wunderground v.1.15,2013-08-17 08:49:00,
2013-08-17 04:56:00,50.0,48.6,30.19,NE,49,0.0,0.0,95,0.00,,,0.00,Wunderground v.1.15,2013-08-17 08:56:00,
2013-08-17 05:01:00,50.0,48.6,30.19,NE,49,0.0,0.0,95,0.00,,,0.00,Wunderground v.1.15,2013-08-17 09:01:00,
2013-08-17 05:07:00,49.8,48.4,30.19,NE,48,0.0,0.0,95,0.00,,,0.00,Wunderground v.1.15,2013-08-17 09:07:00,
2013-08-17 05:13:00,50.0,48.6,30.19,NE,49,0.0,0.0,95,0.00,,,0.00,Wunderground v.1.15,2013-08-17 09:13:00,
2013-08-17 05:20:00,49.8,48.4,30.19,NE,49,0.0,0.0,95,0.00,,,0.00,Wunderground v.1.15,2013-08-17 09:20:00,
2013-08-17 05:25:00,49.9,48.5,30.19,NE,48,0.0,0.0,95,0.00,,,0.00,Wunderground v.1.15,2013-08-17 09:25:00,
2013-08-17 05:30:00,50.1,48.7,30.19,NE,49,0.0,0.0,95,0.00,,,0.00,Wunderground v.1.15,2013-08-17 09:30:00,
2013-08-17 05:37:00,50.6,49.2,30.19,NE,48,0.0,0.0,95,0.00,,,0.00,Wunderground v.1.15,2013-08-17 09:37:00,
2013-08-17 05:43:00,50.7,49.3,30.19,NE,49,0.0,0.0,95,0.00,,,0.00,Wunderground v.1.15,2013-08-17 09:43:00,
2013-08-17 05:49:00,50.9,49.5,30.19,NE,48,0.0,0.0,95,0.00,,,0.00,Wunderground v.1.15,2013-08-17 09:49:00,
2013-08-17 05:54:00,50.8,49.4,30.19,NE,49,0.0,0.0,95,0.00,,,0.00,Wunderground v.1.15,2013-08-17 09:54:00,
2013-08-17 06:00:00,50.6,49.2,30.19,NE,49,0.0,0.0,95,0.00,,,0.00,Wunderground v.1.15,2013-08-17 10:00:00,
2013-08-17 06:06:00,50.6,49.2,30.19,NE,49,0.0,0.0,95,0.00,,,0.00,Wunderground v.1.15,2013-08-17 10:06:00,
2013-08-17 06:11:00,50.6,49.2,30.19,NE,48,0.0,0.0,95,0.00,,,0.00,Wunderground v.1.15,2013-08-17 10:11:00,
2013-08-17 06:17:00,50.8,49.4,30.19,NE,49,0.0,0.0,95,0.00,,,0.00,Wunderground v.1.15,2013-08-17 10:17:00,
2013-08-17 06:24:00,50.8,49.4,30.19,NE,49,0.0,0.0,95,0.00,,,0.00,Wunderground v.1.15,2013-08-17 10:24:00,
2013-08-17 06:29:00,50.9,49.5,30.19,NE,48,0.0,0.0,95,0.00,,,0.00,Wunderground v.1.15,2013-08-17 10:29:00,
2013-08-17 06:34:00,50.8,49.4,30.19,NE,48,0.0,0.0,95,0.00,,,0.00,Wunderground v.1.15,2013-08-17 10:34:00,
2013-08-17 06:39:00,50.7,49.3,30.20,NE,48,0.0,0.0,95,0.00,,,0.00,Wunderground v.1.15,2013-08-17 10:39:00,
2013-08-17 06:47:00,50.6,49.2,30.20,NE,48,0.0,0.0,95,0.00,,,0.00,Wunderground v.1.15,2013-08-17 10:47:00,
2013-08-17 06:52:00,50.6,49.2,30.21,NE,48,0.0,0.0,95,0.00,,,0.00,Wunderground v.1.15,2013-08-17 10:52:00,
2013-08-17 06:57:00,50.5,49.1,30.21,NE,48,0.0,0.0,95,0.00,,,0.00,Wunderground v.1.15,2013-08-17 10:57:00,
2013-08-17 07:03:00,50.6,49.2,30.21,NE,48,0.0,0.0,95,0.00,,,0.00,Wunderground v.1.15,2013-08-17 11:03:00,
2013-08-17 07:09:00,50.6,49.2,30.21,NE,48,0.0,0.0,95,0.00,,,0.00,Wunderground v.1.15,2013-08-17 11:09:00,
2013-08-17 07:14:00,50.7,49.3,30.21,NE,48,0.0,0.0,95,0.00,,,0.00,Wunderground v.1.15,2013-08-17 11:14:00,
2013-08-17 07:19:00,51.0,49.6,30.21,ENE,64,0.0,0.0,95,0.00,,,0.00,Wunderground v.1.15,2013-08-17 11:19:00,
2013-08-17 07:26:00,51.6,50.2,30.21,ENE,63,0.0,0.0,95,0.00,,,0.00,Wunderground v.1.15,2013-08-17 11:26:00,
2013-08-17 07:31:00,51.7,50.3,30.21,ENE,64,0.0,0.0,95,0.00,,,0.00,Wunderground v.1.15,2013-08-17 11:31:00,
2013-08-17 07:37:00,51.9,50.5,30.21,ENE,64,0.0,0.0,95,0.00,,,0.00,Wunderground v.1.15,2013-08-17 11:37:00,
2013-08-17 07:43:00,52.2,50.8,30.21,ENE,64,0.0,0.0,95,0.00,,,0.00,Wunderground v.1.15,2013-08-17 11:43:00,
2013-08-17 07:49:00,52.5,51.1,30.21,ENE,63,0.0,0.0,95,0.00,,,0.00,Wunderground v.1.15,2013-08-17 11:49:00,
2013-08-17 07:54:00,52.8,51.4,30.21,ENE,64,0.0,0.0,95,0.00,,,0.00,Wunderground v.1.15,2013-08-17 11:54:00,
2013-08-17 08:00:00,53.4,52.0,30.21,ENE,64,0.0,0.0,95,0.00,,,0.00,Wunderground v.1.15,2013-08-17 12:00:00,
2013-08-17 08:05:00,54.0,52.6,30.21,ENE,63,0.0,0.0,95,0.00,,,0.00,Wunderground v.1.15,2013-08-17 12:05:00,
2013-08-17 08:09:00,54.5,53.1,30.21,ENE,64,0.0,0.0,95,0.00,,,0.00,Wunderground v.1.15,2013-08-17 12:09:00,
2013-08-17 08:14:00,55.0,53.6,30.21,ENE,64,0.0,0.0,95,0.00,,,0.00,Wunderground v.1.15,2013-08-17 12:14:00,
2013-08-17 08:20:00,55.4,54.0,30.21,ENE,64,0.0,0.0,95,0.00,,,0.00,Wunderground v.1.15,2013-08-17 12:20:00,
2013-08-17 08:25:00,55.9,54.5,30.22,ENE,63,0.0,0.0,95,0.00,,,0.00,Wunderground v.1.15,2013-08-17 12:25:00,
2013-08-17 08:30:00,56.3,54.9,30.21,ENE,64,0.0,0.0,95,0.00,,,0.00,Wunderground v.1.15,2013-08-17 12:30:00,
2013-08-17 08:36:00,56.8,55.4,30.21,ENE,64,0.0,0.0,95,0.00,,,0.00,Wunderground v.1.15,2013-08-17 12:36:00,
2013-08-17 08:42:00,57.4,56.0,30.21,ENE,63,0.0,0.0,95,0.00,,,0.00,Wunderground v.1.15,2013-08-17 12:42:00,
2013-08-17 08:49:00,58.2,56.8,30.21,ENE,63,0.0,0.0,95,0.00,,,0.00,Wunderground v.1.15,2013-08-17 12:49:00,
2013-08-17 08:54:00,58.7,57.3,30.21,ENE,63,0.0,0.0,95,0.00,,,0.00,Wunderground v.1.15,2013-08-17 12:54:00,
2013-08-17 08:59:00,59.4,58.0,30.21,ENE,64,0.0,0.0,95,0.00,,,0.00,Wunderground v.1.15,2013-08-17 12:59:00,
2013-08-17 09:05:00,60.0,58.6,30.22,SSE,149,0.0,2.0,95,0.00,,,0.00,Wunderground v.1.15,2013-08-17 13:05:00,
2013-08-17 09:10:00,60.5,59.1,30.22,SE,135,1.0,1.0,95,0.00,,,0.00,Wunderground v.1.15,2013-08-17 13:10:00,
2013-08-17 09:17:00,61.9,59.2,30.21,SE,135,1.0,1.0,91,0.00,,,0.00,Wunderground v.1.15,2013-08-17 13:17:00,
2013-08-17 09:23:00,62.7,58.8,30.21,ESE,122,0.0,1.0,87,0.00,,,0.00,Wunderground v.1.15,2013-08-17 13:23:00,
2013-08-17 09:29:00,63.4,58.8,30.21,ESE,121,0.0,0.0,85,0.00,,,0.00,Wunderground v.1.15,2013-08-17 13:29:00,
2013-08-17 09:34:00,63.7,58.1,30.21,ESE,120,0.0,3.0,82,0.00,,,0.00,Wunderground v.1.15,2013-08-17 13:34:00,
2013-08-17 09:40:00,64.2,58.6,30.21,ESE,115,0.0,5.0,82,0.00,,,0.00,Wunderground v.1.15,2013-08-17 13:40:00,
2013-08-17 09:46:00,64.9,58.9,30.21,SE,136,0.0,5.0,81,0.00,,,0.00,Wunderground v.1.15,2013-08-17 13:46:00,
2013-08-17 09:53:00,66.1,59.7,30.21,SE,127,0.0,5.0,80,0.00,,,0.00,Wunderground v.1.15,2013-08-17 13:53:00,
2013-08-17 09:59:00,67.0,59.2,30.21,SW,214,0.0,5.0,76,0.00,,,0.00,Wunderground v.1.15,2013-08-17 13:59:00,
2013-08-17 10:05:00,67.5,58.9,30.21,SE,131,0.0,5.0,74,0.00,,,0.00,Wunderground v.1.15,2013-08-17 14:05:00,
2013-08-17 10:10:00,67.5,59.3,30.21,North,353,0.0,4.0,75,0.00,,,0.00,Wunderground v.1.15,2013-08-17 14:10:00,
2013-08-17 10:17:00,67.8,59.6,30.21,WNW,288,0.0,4.0,75,0.00,,,0.00,Wunderground v.1.15,2013-08-17 14:17:00,
2013-08-17 10:22:00,68.3,59.7,30.21,ESE,111,0.0,4.0,74,0.00,,,0.00,Wunderground v.1.15,2013-08-17 14:22:00,
2013-08-17 10:28:00,69.1,60.1,30.21,SSE,153,0.0,4.0,73,0.00,,,0.00,Wunderground v.1.15,2013-08-17 14:28:00,
2013-08-17 10:35:00,69.6,60.2,30.21,ESE,117,0.0,4.0,72,0.00,,,0.00,Wunderground v.1.15,2013-08-17 14:35:00,
2013-08-17 10:41:00,70.3,60.4,30.21,ESE,115,0.0,4.0,71,0.00,,,0.00,Wunderground v.1.15,2013-08-17 14:41:00,
2013-08-17 10:46:00,70.2,60.4,30.21,NW,320,0.0,4.0,71,0.00,,,0.00,Wunderground v.1.15,2013-08-17 14:46:00,
2013-08-17 10:51:00,70.1,60.3,30.21,North,11,1.0,3.0,71,0.00,,,0.00,Wunderground v.1.15,2013-08-17 14:51:00,
2013-08-17 10:57:00,70.9,61.0,30.21,SSE,163,1.0,3.0,71,0.00,,,0.00,Wunderground v.1.15,2013-08-17 14:57:00,
2013-08-17 11:04:00,72.1,61.4,30.20,SSE,159,0.0,3.0,69,0.00,,,0.00,Wunderground v.1.15,2013-08-17 15:04:00,
2013-08-17 11:09:00,73.1,62.3,30.21,SW,236,0.0,3.0,69,0.00,,,0.00,Wunderground v.1.15,2013-08-17 15:09:00,
2013-08-17 11:16:00,73.2,61.6,30.21,NNW,330,1.0,3.0,67,0.00,,,0.00,Wunderground v.1.15,2013-08-17 15:16:00,
2013-08-17 11:21:00,73.3,61.3,30.20,SE,131,1.0,3.0,66,0.00,,,0.00,Wunderground v.1.15,2013-08-17 15:21:00,
2013-08-17 11:26:00,73.8,61.3,30.20,South,169,1.0,3.0,65,0.00,,,0.00,Wunderground v.1.15,2013-08-17 15:26:00,
2013-08-17 11:33:00,74.7,61.3,30.20,ESE,118,1.0,3.0,63,0.00,,,0.00,Wunderground v.1.15,2013-08-17 15:33:00,
2013-08-17 11:39:00,75.0,62.0,30.20,North,4,1.0,5.0,64,0.00,,,0.00,Wunderground v.1.15,2013-08-17 15:39:00,
2013-08-17 11:46:00,75.9,62.8,30.20,ESE,118,1.0,5.0,64,0.00,,,0.00,Wunderground v.1.15,2013-08-17 15:46:00,
2013-08-17 11:52:00,75.9,61.9,30.20,WSW,246,1.0,5.0,62,0.00,,,0.00,Wunderground v.1.15,2013-08-17 15:52:00,
2013-08-17 11:57:00,76.2,62.2,30.20,ESE,106,1.0,5.0,62,0.00,,,0.00,Wunderground v.1.15,2013-08-17 15:57:00,
2013-08-17 12:02:00,76.3,60.9,30.20,South,170,1.0,5.0,59,0.00,,,0.00,Wunderground v.1.15,2013-08-17 16:02:00,
2013-08-17 12:07:00,76.2,61.3,30.20,South,185,1.0,5.0,60,0.00,,,0.00,Wunderground v.1.15,2013-08-17 16:07:00,
2013-08-17 12:13:00,77.0,62.0,30.20,ESE,112,1.0,5.0,60,0.00,,,0.00,Wunderground v.1.15,2013-08-17 16:13:00,
2013-08-17 12:19:00,77.0,60.6,30.20,SSE,148,1.0,6.0,57,0.00,,,0.00,Wunderground v.1.15,2013-08-17 16:19:00,
2013-08-17 12:25:00,76.8,60.4,30.20,ESE,113,2.0,6.0,57,0.00,,,0.00,Wunderground v.1.15,2013-08-17 16:25:00,
2013-08-17 12:31:00,77.2,61.3,30.20,WSW,245,2.0,6.0,58,0.00,,,0.00,Wunderground v.1.15,2013-08-17 16:31:00,
2013-08-17 12:37:00,76.4,60.5,30.20,SSE,155,2.0,6.0,58,0.00,,,0.00,Wunderground v.1.15,2013-08-17 16:37:00,
2013-08-17 12:43:00,75.7,59.9,30.20,SE,128,3.0,6.0,58,0.00,,,0.00,Wunderground v.1.15,2013-08-17 16:43:00,
2013-08-17 12:48:00,75.1,59.8,30.20,East,96,4.0,6.0,59,0.00,,,0.00,Wunderground v.1.15,2013-08-17 16:48:00,
2013-08-17 12:54:00,75.3,59.0,30.20,ESE,121,3.0,6.0,57,0.00,,,0.00,Wunderground v.1.15,2013-08-17 16:54:00,
2013-08-17 13:00:00,76.1,59.8,30.19,SSE,152,2.0,5.0,57,0.00,,,0.00,Wunderground v.1.15,2013-08-17 17:00:00,
2013-08-17 13:06:00,76.6,60.7,30.19,ESE,120,2.0,5.0,58,0.00,,,0.00,Wunderground v.1.15,2013-08-17 17:06:00,
2013-08-17 13:11:00,77.3,60.4,30.19,ESE,117,1.0,3.0,56,0.00,,,0.00,Wunderground v.1.15,2013-08-17 17:11:00,
2013-08-17 13:17:00,77.2,60.3,30.19,SE,124,1.0,8.0,56,0.00,,,0.00,Wunderground v.1.15,2013-08-17 17:17:00,
2013-08-17 13:23:00,77.0,60.1,30.19,South,174,2.0,8.0,56,0.00,,,0.00,Wunderground v.1.15,2013-08-17 17:23:00,
2013-08-17 13:29:00,77.4,59.5,30.19,South,190,1.0,8.0,54,0.00,,,0.00,Wunderground v.1.15,2013-08-17 17:29:00,
2013-08-17 13:34:00,78.4,59.3,30.19,SSE,163,1.0,8.0,52,0.00,,,0.00,Wunderground v.1.15,2013-08-17 17:34:00,
2013-08-17 13:39:00,78.4,60.4,30.19,South,169,2.0,8.0,54,0.00,,,0.00,Wunderground v.1.15,2013-08-17 17:39:00,
2013-08-17 13:45:00,78.5,58.9,30.19,ENE,59,3.0,8.0,51,0.00,,,0.00,Wunderground v.1.15,2013-08-17 17:45:00,
2013-08-17 13:50:00,78.2,57.5,30.19,East,85,3.0,8.0,49,0.00,,,0.00,Wunderground v.1.15,2013-08-17 17:50:00,
2013-08-17 13:57:00,78.3,60.3,30.19,ESE,113,2.0,8.0,54,0.00,,,0.00,Wunderground v.1.15,2013-08-17 17:57:00,
2013-08-17 14:02:00,79.1,59.4,30.19,NW,326,1.0,8.0,51,0.00,,,0.00,Wunderground v.1.15,2013-08-17 18:02:00,
2013-08-17 14:08:00,78.3,58.1,30.19,SE,125,1.0,8.0,50,0.00,,,0.00,Wunderground v.1.15,2013-08-17 18:08:00,
2013-08-17 14:13:00,78.5,58.3,30.19,ESE,117,1.0,9.0,50,0.00,,,0.00,Wunderground v.1.15,2013-08-17 18:13:00,
2013-08-17 14:19:00,78.4,59.3,30.19,NNW,334,1.0,9.0,52,0.00,,,0.00,Wunderground v.1.15,2013-08-17 18:19:00,
2013-08-17 14:24:00,78.1,58.5,30.19,ESE,121,1.0,9.0,51,0.00,,,0.00,Wunderground v.1.15,2013-08-17 18:24:00,
2013-08-17 14:30:00,78.2,58.0,30.19,East,86,1.0,9.0,50,0.00,,,0.00,Wunderground v.1.15,2013-08-17 18:30:00,
2013-08-17 14:35:00,78.8,59.1,30.19,SSE,160,1.0,9.0,51,0.00,,,0.00,Wunderground v.1.15,2013-08-17 18:35:00,
2013-08-17 14:41:00,78.6,59.0,30.19,East,99,1.0,6.0,51,0.00,,,0.00,Wunderground v.1.15,2013-08-17 18:41:00,
2013-08-17 14:46:00,78.4,58.8,30.18,SE,143,1.0,6.0,51,0.00,,,0.00,Wunderground v.1.15,2013-08-17 18:46:00,
2013-08-17 14:53:00,78.4,58.8,30.18,SE,128,2.0,6.0,51,0.00,,,0.00,Wunderground v.1.15,2013-08-17 18:53:00,
2013-08-17 15:00:00,78.5,58.3,30.18,ESE,118,2.0,2.0,50,0.00,,,0.00,Wunderground v.1.15,2013-08-17 19:00:00,
2013-08-17 15:06:00,79.1,57.1,30.17,East,101,1.0,6.0,47,0.00,,,0.00,Wunderground v.1.15,2013-08-17 19:06:00,
2013-08-17 15:11:00,79.2,57.8,30.17,SSW,203,2.0,9.0,48,0.00,,,0.00,Wunderground v.1.15,2013-08-17 19:11:00,
2013-08-17 15:16:00,79.4,56.2,30.17,SE,124,2.0,9.0,45,0.00,,,0.00,Wunderground v.1.15,2013-08-17 19:16:00,
2013-08-17 15:22:00,79.6,57.0,30.17,West,274,3.0,9.0,46,0.00,,,0.00,Wunderground v.1.15,2013-08-17 19:22:00,
2013-08-17 15:28:00,79.5,57.5,30.17,East,79,2.0,9.0,47,0.00,,,0.00,Wunderground v.1.15,2013-08-17 19:28:00,
2013-08-17 15:33:00,79.2,57.8,30.17,East,91,2.0,9.0,48,0.00,,,0.00,Wunderground v.1.15,2013-08-17 19:33:00,
2013-08-17 15:39:00,79.9,57.3,30.17,SE,138,1.0,1.0,46,0.00,,,0.00,Wunderground v.1.15,2013-08-17 19:39:00,
2013-08-17 15:44:00,80.4,58.3,30.17,ESE,122,1.0,9.0,47,0.00,,,0.00,Wunderground v.1.15,2013-08-17 19:44:00,
2013-08-17 15:50:00,80.8,59.9,30.17,NE,44,1.0,1.0,49,0.00,,,0.00,Wunderground v.1.15,2013-08-17 19:50:00,
2013-08-17 15:55:00,79.9,58.5,30.17,ENE,75,2.0,9.0,48,0.00,,,0.00,Wunderground v.1.15,2013-08-17 19:55:00,
2013-08-17 16:01:00,78.7,57.9,30.17,ESE,109,2.0,9.0,49,0.00,,,0.00,Wunderground v.1.15,2013-08-17 20:01:00,
2013-08-17 16:06:00,78.3,58.1,30.16,ESE,107,1.0,9.0,50,0.00,,,0.00,Wunderground v.1.15,2013-08-17 20:06:00,
2013-08-17 16:12:00,78.6,59.0,30.16,ESE,108,1.0,9.0,51,0.00,,,0.00,Wunderground v.1.15,2013-08-17 20:12:00,
2013-08-17 16:17:00,79.8,57.8,30.16,NE,36,1.0,9.0,47,0.00,,,0.00,Wunderground v.1.15,2013-08-17 20:17:00,
2013-08-17 16:23:00,79.2,58.4,30.16,ESE,114,2.0,9.0,49,0.00,,,0.00,Wunderground v.1.15,2013-08-17 20:23:00,
2013-08-17 16:29:00,77.9,58.3,30.16,ESE,105,2.0,2.0,51,0.00,,,0.00,Wunderground v.1.15,2013-08-17 20:29:00,
2013-08-17 16:34:00,77.1,58.6,30.16,East,101,2.0,5.0,53,0.00,,,0.00,Wunderground v.1.15,2013-08-17 20:34:00,
2013-08-17 16:40:00,78.1,59.0,30.16,NW,321,1.0,9.0,52,0.00,,,0.00,Wunderground v.1.15,2013-08-17 20:40:00,
2013-08-17 16:46:00,78.4,58.2,30.16,SW,232,2.0,9.0,50,0.00,,,0.00,Wunderground v.1.15,2013-08-17 20:46:00,
2013-08-17 16:51:00,78.8,60.2,30.16,ESE,117,3.0,9.0,53,0.00,,,0.00,Wunderground v.1.15,2013-08-17 20:51:00,
2013-08-17 16:57:00,78.6,59.0,30.17,SE,124,2.0,9.0,51,0.00,,,0.00,Wunderground v.1.15,2013-08-17 20:57:00,
2013-08-17 17:02:00,78.8,59.1,30.17,NE,49,2.0,9.0,51,0.00,,,0.00,Wunderground v.1.15,2013-08-17 21:02:00,
2013-08-17 17:07:00,79.4,59.1,30.17,East,89,1.0,9.0,50,0.00,,,0.00,Wunderground v.1.15,2013-08-17 21:07:00,
2013-08-17 17:13:00,80.4,59.5,30.16,SE,146,1.0,14.0,49,0.00,,,0.00,Wunderground v.1.15,2013-08-17 21:13:00,
2013-08-17 17:19:00,80.3,59.4,30.16,SE,124,2.0,14.0,49,0.00,,,0.00,Wunderground v.1.15,2013-08-17 21:19:00,
2013-08-17 17:24:00,80.7,59.2,30.16,ENE,65,2.0,14.0,48,0.00,,,0.00,Wunderground v.1.15,2013-08-17 21:24:00,
2013-08-17 17:30:00,80.6,59.7,30.17,SE,131,1.0,14.0,49,0.00,,,0.00,Wunderground v.1.15,2013-08-17 21:30:00,
2013-08-17 17:36:00,80.5,59.0,30.16,ESE,114,1.0,14.0,48,0.00,,,0.00,Wunderground v.1.15,2013-08-17 21:36:00,
2013-08-17 17:42:00,79.7,58.8,30.16,East,86,2.0,7.0,49,0.00,,,0.00,Wunderground v.1.15,2013-08-17 21:42:00,
2013-08-17 17:49:00,78.4,58.8,30.16,East,84,2.0,7.0,51,0.00,,,0.00,Wunderground v.1.15,2013-08-17 21:49:00,
2013-08-17 17:54:00,77.4,58.4,30.16,NE,42,2.0,7.0,52,0.00,,,0.00,Wunderground v.1.15,2013-08-17 21:54:00,
2013-08-17 17:59:00,76.7,57.7,30.16,East,86,1.0,1.0,52,0.00,,,0.00,Wunderground v.1.15,2013-08-17 21:59:00,
2013-08-17 18:05:00,76.6,58.2,30.16,ESE,103,1.0,7.0,53,0.00,,,0.00,Wunderground v.1.15,2013-08-17 22:05:00,
2013-08-17 18:10:00,77.0,57.5,30.16,WNW,297,1.0,7.0,51,0.00,,,0.00,Wunderground v.1.15,2013-08-17 22:10:00,
2013-08-17 18:15:00,77.9,58.3,30.16,NNW,330,1.0,7.0,51,0.00,,,0.00,Wunderground v.1.15,2013-08-17 22:15:00,
2013-08-17 18:20:00,78.4,57.7,30.15,ENE,68,1.0,7.0,49,0.00,,,0.00,Wunderground v.1.15,2013-08-17 22:20:00,
2013-08-17 18:26:00,78.7,56.8,30.15,East,96,1.0,7.0,47,0.00,,,0.00,Wunderground v.1.15,2013-08-17 22:26:00,
2013-08-17 18:32:00,78.6,56.7,30.15,SE,136,2.0,7.0,47,0.00,,,0.00,Wunderground v.1.15,2013-08-17 22:32:00,
2013-08-17 18:37:00,78.4,55.9,30.15,East,86,2.0,7.0,46,0.00,,,0.00,Wunderground v.1.15,2013-08-17 22:37:00,
2013-08-17 18:43:00,78.3,56.4,30.16,East,82,2.0,6.0,47,0.00,,,0.00,Wunderground v.1.15,2013-08-17 22:43:00,
2013-08-17 18:49:00,78.4,57.1,30.16,NNW,338,1.0,6.0,48,0.00,,,0.00,Wunderground v.1.15,2013-08-17 22:49:00,
2013-08-17 18:54:00,78.9,57.0,30.16,ESE,122,1.0,6.0,47,0.00,,,0.00,Wunderground v.1.15,2013-08-17 22:54:00,
2013-08-17 18:59:00,78.5,57.7,30.16,NNE,29,1.0,1.0,49,0.00,,,0.00,Wunderground v.1.15,2013-08-17 22:59:00,
2013-08-17 19:04:00,78.4,58.2,30.15,East,94,1.0,6.0,50,0.00,,,0.00,Wunderground v.1.15,2013-08-17 23:04:00,
2013-08-17 19:10:00,77.7,57.6,30.15,East,91,1.0,6.0,50,0.00,,,0.00,Wunderground v.1.15,2013-08-17 23:10:00,
2013-08-17 19:16:00,76.5,57.6,30.16,ESE,121,2.0,6.0,52,0.00,,,0.00,Wunderground v.1.15,2013-08-17 23:16:00,
2013-08-17 19:21:00,75.8,57.4,30.16,East,98,2.0,10.0,53,0.00,,,0.00,Wunderground v.1.15,2013-08-17 23:21:00,
2013-08-17 19:27:00,75.4,57.6,30.16,ESE,102,1.0,10.0,54,0.00,,,0.00,Wunderground v.1.15,2013-08-17 23:27:00,
2013-08-17 19:33:00,75.0,57.7,30.16,East,101,1.0,10.0,55,0.00,,,0.00,Wunderground v.1.15,2013-08-17 23:33:00,
2013-08-17 19:38:00,74.6,57.9,30.15,East,94,1.0,10.0,56,0.00,,,0.00,Wunderground v.1.15,2013-08-17 23:38:00,
2013-08-17 19:44:00,74.2,58.0,30.16,ESE,112,1.0,6.0,57,0.00,,,0.00,Wunderground v.1.15,2013-08-17 23:44:00,
2013-08-17 19:49:00,73.9,57.7,30.16,ESE,117,0.0,6.0,57,0.00,,,0.00,Wunderground v.1.15,2013-08-17 23:49:00,
2013-08-17 19:55:00,73.6,57.9,30.16,ESE,115,0.0,6.0,58,0.00,,,0.00,Wunderground v.1.15,2013-08-17 23:55:00,
2013-08-17 20:01:00,73.1,57.9,30.16,ESE,116,0.0,6.0,59,0.00,,,0.00,Wunderground v.1.15,2013-08-18 00:01:00,
2013-08-17 20:06:00,72.7,58.5,30.16,ESE,115,0.0,6.0,61,0.00,,,0.00,Wunderground v.1.15,2013-08-18 00:06:00,
2013-08-17 20:12:00,72.3,58.5,30.16,ESE,116,0.0,6.0,62,0.00,,,0.00,Wunderground v.1.15,2013-08-18 00:12:00,
2013-08-17 20:17:00,71.9,58.6,30.16,ESE,116,0.0,6.0,63,0.00,,,0.00,Wunderground v.1.15,2013-08-18 00:17:00,
2013-08-17 20:22:00,71.4,58.1,30.16,ESE,116,0.0,4.0,63,0.00,,,0.00,Wunderground v.1.15,2013-08-18 00:22:00,
2013-08-17 20:27:00,70.8,58.4,30.16,ESE,115,0.0,4.0,65,0.00,,,0.00,Wunderground v.1.15,2013-08-18 00:27:00,
2013-08-17 20:33:00,69.8,58.3,30.15,ESE,117,0.0,4.0,67,0.00,,,0.00,Wunderground v.1.15,2013-08-18 00:33:00,
2013-08-17 20:39:00,69.0,58.4,30.15,ESE,117,0.0,4.0,69,0.00,,,0.00,Wunderground v.1.15,2013-08-18 00:39:00,
2013-08-17 20:45:00,68.6,58.0,30.15,ESE,116,0.0,1.0,69,0.00,,,0.00,Wunderground v.1.15,2013-08-18 00:45:00,
2013-08-17 20:50:00,68.1,58.7,30.15,ESE,117,0.0,1.0,72,0.00,,,0.00,Wunderground v.1.15,2013-08-18 00:50:00,
2013-08-17 20:55:00,67.4,57.7,30.15,ESE,117,0.0,1.0,71,0.00,,,0.00,Wunderground v.1.15,2013-08-18 00:55:00,
2013-08-17 21:00:00,67.1,58.2,30.15,ESE,117,0.0,1.0,73,0.00,,,0.00,Wunderground v.1.15,2013-08-18 01:00:00,
2013-08-17 21:06:00,66.7,58.9,30.16,ESE,117,0.0,1.0,76,0.00,,,0.00,Wunderground v.1.15,2013-08-18 01:06:00,
2013-08-17 21:11:00,66.2,58.8,30.16,ESE,117,0.0,1.0,77,0.00,,,0.00,Wunderground v.1.15,2013-08-18 01:11:00,
2013-08-17 21:17:00,65.6,58.6,30.16,ESE,117,0.0,1.0,78,0.00,,,0.00,Wunderground v.1.15,2013-08-18 01:17:00,
2013-08-17 21:22:00,65.1,58.1,30.16,ESE,117,0.0,1.0,78,0.00,,,0.00,Wunderground v.1.15,2013-08-18 01:22:00,
2013-08-17 21:28:00,65.0,58.3,30.16,ESE,117,0.0,1.0,79,0.00,,,0.00,Wunderground v.1.15,2013-08-18 01:28:00,
2013-08-17 21:33:00,64.8,58.5,30.16,ESE,117,0.0,1.0,80,0.00,,,0.00,Wunderground v.1.15,2013-08-18 01:33:00,
2013-08-17 21:39:00,64.3,58.3,30.16,ESE,117,0.0,1.0,81,0.00,,,0.00,Wunderground v.1.15,2013-08-18 01:39:00,
2013-08-17 21:44:00,64.1,58.5,30.16,ESE,117,0.0,1.0,82,0.00,,,0.00,Wunderground v.1.15,2013-08-18 01:44:00,
2013-08-17 21:51:00,63.8,57.9,30.16,ESE,117,0.0,1.0,81,0.00,,,0.00,Wunderground v.1.15,2013-08-18 01:51:00,
2013-08-17 21:56:00,63.7,58.1,30.17,ESE,117,0.0,1.0,82,0.00,,,0.00,Wunderground v.1.15,2013-08-18 01:56:00,
2013-08-17 22:02:00,63.6,58.3,30.17,ESE,117,0.0,1.0,83,0.00,,,0.00,Wunderground v.1.15,2013-08-18 02:02:00,
2013-08-17 22:07:00,63.3,58.0,30.16,ESE,117,0.0,1.0,83,0.00,,,0.00,Wunderground v.1.15,2013-08-18 02:07:00,
2013-08-17 22:13:00,62.9,57.7,30.16,ESE,117,0.0,1.0,83,0.00,,,0.00,Wunderground v.1.15,2013-08-18 02:13:00,
2013-08-17 22:19:00,63.0,57.8,30.16,ESE,117,0.0,1.0,83,0.00,,,0.00,Wunderground v.1.15,2013-08-18 02:19:00,
2013-08-17 22:25:00,63.4,57.8,30.16,ESE,120,0.0,1.0,82,0.00,,,0.00,Wunderground v.1.15,2013-08-18 02:25:00,
2013-08-17 22:30:00,63.4,57.8,30.17,ESE,115,0.0,1.0,82,0.00,,,0.00,Wunderground v.1.15,2013-08-18 02:30:00,
2013-08-17 22:36:00,63.5,57.9,30.17,ESE,111,0.0,1.0,82,0.00,,,0.00,Wunderground v.1.15,2013-08-18 02:36:00,
2013-08-17 22:41:00,63.9,57.6,30.17,ESE,115,0.0,1.0,80,0.00,,,0.00,Wunderground v.1.15,2013-08-18 02:41:00,
2013-08-17 22:47:00,64.4,58.1,30.17,ESE,119,0.0,1.0,80,0.00,,,0.00,Wunderground v.1.15,2013-08-18 02:47:00,
2013-08-17 22:54:00,64.1,57.5,30.17,ESE,119,0.0,1.0,79,0.00,,,0.00,Wunderground v.1.15,2013-08-18 02:54:00,
2013-08-17 23:00:00,63.9,57.6,30.17,ESE,119,0.0,1.0,80,0.00,,,0.00,Wunderground v.1.15,2013-08-18 03:00:00,
2013-08-17 23:06:00,63.5,57.6,30.17,ESE,119,0.0,1.0,81,0.00,,,0.00,Wunderground v.1.15,2013-08-18 03:06:00,
2013-08-17 23:11:00,63.2,57.3,30.17,ESE,119,0.0,2.0,81,0.00,,,0.00,Wunderground v.1.15,2013-08-18 03:11:00,
2013-08-17 23:17:00,62.8,57.6,30.17,ESE,118,0.0,2.0,83,0.00,,,0.00,Wunderground v.1.15,2013-08-18 03:17:00,
2013-08-17 23:23:00,62.4,57.5,30.17,ESE,117,0.0,2.0,84,0.00,,,0.00,Wunderground v.1.15,2013-08-18 03:23:00,
2013-08-17 23:29:00,62.2,57.3,30.17,ESE,120,0.0,2.0,84,0.00,,,0.00,Wunderground v.1.15,2013-08-18 03:29:00,
2013-08-17 23:34:00,62.0,57.1,30.17,SE,128,0.0,2.0,84,0.00,,,0.00,Wunderground v.1.15,2013-08-18 03:34:00,
2013-08-17 23:39:00,62.8,57.6,30.17,ESE,110,1.0,1.0,83,0.00,,,0.00,Wunderground v.1.15,2013-08-18 03:39:00,
2013-08-17 23:44:00,63.7,57.4,30.17,ESE,115,1.0,2.0,80,0.00,,,0.00,Wunderground v.1.15,2013-08-18 03:44:00,
2013-08-17 23:50:00,64.4,57.4,30.17,SE,127,1.0,1.0,78,0.00,,,0.00,Wunderground v.1.15,2013-08-18 03:50:00,
2013-08-17 23:55:00,64.2,57.2,30.17,ESE,111,0.0,1.0,78,0.00,,,0.00,Wunderground v.1.15,2013-08-18 03:55:00,